Main page
METAR-TAF:

METAR-TAF

Airports :

Guaymas International Airport

Guaymas, Mexico

latitude: 27-58N, longitude: 110-56W, elevation: 27 m

Current weather observation

The report was made 46 minutes ago, at 16:40 UTC
Wind 10 kt from the South
Temperature 36°C
Humidity 50%
Pressure 1003 hPa
Visibility: 16.1 km
Overcast at a height of 12000 ft

METAR: MMGM 211640Z 18010KT 10SM OVC120 36/24 A2963 RMK 8/02/ HZY 1 QUAD BINOVC

Time: 10:26 (17:26 UTC)

Forecast

The report was made 11 hours and 57 minutes ago, at 05:29 UTC
Forecast valid from 21 at 06 UTC to 22 at 06 UTC
Wind 12 kt from the Southwest
Visibility: 10 km
Scattered clouds at a height of 20000 ft
From 21 at 1800 UTC
Wind 15 kt from the West/Southwest
Visibility: 10 km
Scattered clouds at a height of 20000 ft
From 22 at 0000 UTC
Wind 10 kt from the West
Visibility: 10 km
Scattered clouds at a height of 20000 ft

TAF: MMGM 210529Z 2106/2206 22012KT P6SM SCT200 FM211800 24015KT P6SM SCT200 FM220000 27010KT P6SM SCT200

Weather observations and forecasts of more than 4000 airports (METAR and TAF reports).

The available stations are represented by yellow and red dots on the map.

Hover mouse over dot to see the name of the station.

Then click to see weather observations and forecasts.

To change the map : click on the green buttons with a black cross to zoom in, on the green button with a dash to zoom out, or on the green arrows for adjacent maps.


METAR-TAF: